CDT,Max TemperatureF,Mean TemperatureF,Min TemperatureF,Max Dew PointF,MeanDew PointF,Min DewpointF,Max Humidity, Mean Humidity, Min Humidity, Max Sea Level PressureIn, Mean Sea Level PressureIn, Min Sea Level PressureIn, Max VisibilityMiles, Mean VisibilityMiles, Min VisibilityMiles, Max Wind SpeedMPH, Mean Wind SpeedMPH, Max Gust SpeedMPH,PrecipitationIn, CloudCover, Events, WindDirDegrees
2013-4-1,33,24,15,12,11,7,86,52,35,30.27,30.24,30.22,10,10,10,9,6,,0.00,0,,39
2013-4-2,42,28,14,23,16,10,93,65,38,30.27,30.21,30.11,10,10,9,16,4,23,0.00,1,,111
2013-4-3,59,44,28,34,26,23,80,62,31,30.16,29.99,29.84,10,10,10,32,15,40,0.00,2,,254
2013-4-4,39,32,24,25,21,18,93,69,42,30.25,30.20,30.15,10,10,10,12,8,17,0.00,2,,11
2013-4-5,48,36,23,28,22,14,93,66,34,30.15,29.87,29.67,10,10,10,22,10,29,0.00,3,,128
2013-4-6,39,32,24,32,29,25,100,82,65,29.87,29.75,29.64,10,9,5,17,6,22,0.00,6,,356
2013-4-7,53,42,30,36,31,28,100,79,47,29.87,29.74,29.64,10,9,5,20,5,24,0.00,5,Rain,123
2013-4-8,32,20,8,32,19,3,100,87,68,30.37,30.03,29.72,10,4,0,25,11,34,0.76,4,Fog-Rain-Snow,35
2013-4-9,30,19,8,18,11,3,86,71,55,30.45,30.40,30.35,10,10,10,16,8,23,0.00,1,,354
2013-4-10,39,30,21,18,17,14,86,65,36,30.40,30.22,30.04,10,10,10,13,5,20,0.00,3,,31
2013-4-11,37,30,23,25,20,16,93,66,44,30.02,29.91,29.86,10,10,3,15,6,22,0.02,7,Snow,48
2013-4-12,35,30,24,27,24,23,93,81,60,29.96,29.94,29.91,10,8,2,12,5,,0.14,7,Snow,30
2013-4-13,41,34,28,28,27,23,100,77,53,29.93,29.78,29.68,10,10,9,20,8,29,0.00,8,,109
2013-4-14,30,27,24,27,24,21,100,90,75,29.72,29.67,29.64,10,2,0,25,18,34,7.06,8,Rain-Snow,55
2013-4-15,32,29,26,27,25,25,93,85,75,30.07,29.86,29.71,10,6,1,23,16,32,3.57,7,Rain-Snow,340
2013-4-16,32,26,21,27,23,19,93,86,69,30.36,30.23,30.07,10,9,0,9,4,,0.00,8,Fog-Snow,30
2013-4-17,32,28,23,25,23,19,100,84,69,30.37,30.29,30.23,10,10,5,16,4,20,0.00,7,Snow,357
2013-4-18,35,24,12,21,16,9,86,70,48,30.23,30.12,30.02,10,10,10,17,9,24,0.00,1,,312
2013-4-19,35,24,14,21,16,9,86,64,41,30.07,30.03,29.98,10,10,8,12,4,,0.00,2,,111
2013-4-20,32,26,19,28,19,10,87,72,54,30.07,30.02,29.93,10,10,2,28,13,34,0.00,6,Snow,155
2013-4-21,37,32,28,32,27,23,100,78,60,30.25,30.06,29.87,10,10,3,24,14,31,0.00,6,Rain-Snow,310
2013-4-22,32,24,17,23,17,12,86,67,48,30.41,30.36,30.25,10,10,10,16,11,22,0.00,5,,346
2013-4-23,46,29,12,28,18,9,93,65,32,30.38,30.16,30.00,10,10,10,21,6,30,0.00,2,,270
2013-4-24,37,28,19,32,22,7,100,72,28,30.08,30.00,29.94,10,7,0,32,12,43,0.71,4,Fog-Rain-Snow,292
2013-4-25,64,42,19,32,24,16,86,55,22,30.06,29.88,29.75,10,10,9,22,7,29,0.00,2,,198
2013-4-26,73,50,26,34,28,23,93,51,15,30.04,29.98,29.89,10,10,10,14,6,24,0.00,0,,230
2013-4-27,77,56,35,37,33,30,87,42,19,29.97,29.83,29.68,10,10,9,23,6,34,0.00,1,,253
2013-4-28,64,52,39,39,29,16,66,40,21,29.92,29.80,29.65,10,10,10,20,9,26,0.00,2,,330
2013-4-29,66,47,28,39,28,18,74,44,28,29.88,29.60,29.41,10,10,10,32,10,43,0.00,2,,215
2013-4-30,50,38,24,39,27,19,80,61,46,30.18,29.73,29.45,10,10,10,33,17,47,0.00,6,,286